Terminal Aerodrome Forecast
Issued by NWS Wilmington, OH

Home | Current Version | Previous Version | Text Only | Print | Product List | Glossary On
Versions: 1 2 3 4 5 6 7 8 9 10 11 12 13 14 15 16 17 18 19
000
FTUS41 KILN 211743
TAFILN
TAF
KILN 211743Z 2118/2218 20009KT P6SM VCSH OVC017
      TEMPO 2121/2201 OVC008
     FM220100 19007KT 5SM BR VCSH OVC008
     FM220600 19008KT P6SM OVC013
     FM220800 18007KT P6SM OVC022
     FM221100 18008KT P6SM BKN035
     FM221500 17009G16KT P6SM BKN080=

USA.gov is the U.S. government's official web portal to all federal, state and local government web resources and services.